createdAt,value
2019-01-24T00:00:15.583Z,-2.00
2019-01-24T00:03:10.275Z,-1.90
2019-01-24T00:06:03.177Z,-1.90
2019-01-24T00:08:58.613Z,-2.00
2019-01-24T00:11:52.499Z,-1.90
2019-01-24T00:14:45.779Z,-1.90
2019-01-24T00:17:40.871Z,-1.90
2019-01-24T00:21:03.554Z,-1.70
2019-01-24T00:23:53.162Z,-1.80
2019-01-24T00:26:43.266Z,-1.70
2019-01-24T00:29:33.313Z,-1.80
2019-01-24T00:32:23.349Z,-1.80
2019-01-24T00:35:13.883Z,-1.90
2019-01-24T00:38:03.961Z,-1.90
2019-01-24T00:40:54.072Z,-1.90
2019-01-24T00:43:43.919Z,-1.90
2019-01-24T00:46:33.908Z,-2.00
2019-01-24T00:49:23.677Z,-1.90
2019-01-24T00:52:13.779Z,-1.80
2019-01-24T00:55:03.870Z,-1.80
2019-01-24T00:57:53.732Z,-1.80
2019-01-24T01:00:43.638Z,-1.90
2019-01-24T01:03:33.481Z,-1.90
2019-01-24T01:06:23.303Z,-2.10
2019-01-24T01:09:13.250Z,-2.20
2019-01-24T01:12:03.161Z,-2.30
2019-01-24T01:14:53.330Z,-2.20
2019-01-24T01:17:44.032Z,-2.30
2019-01-24T01:20:33.910Z,-2.30
2019-01-24T01:23:23.919Z,-2.40
2019-01-24T01:26:14.085Z,-2.50
2019-01-24T01:29:04.189Z,-2.30
2019-01-24T01:31:54.257Z,-2.40
2019-01-24T01:34:43.972Z,-2.20
2019-01-24T01:37:34.038Z,-2.10
2019-01-24T01:40:25.065Z,-2.30
2019-01-24T01:43:14.861Z,-2.30
2019-01-24T01:46:04.302Z,-2.40
2019-01-24T01:48:54.383Z,-2.30
2019-01-24T01:51:44.394Z,-2.20
2019-01-24T01:54:34.337Z,-2.20
2019-01-24T01:57:24.119Z,-2.30
2019-01-24T02:00:16.708Z,-2.30
2019-01-24T02:03:06.672Z,-2.40
2019-01-24T02:05:56.418Z,-2.40
2019-01-24T02:08:46.939Z,-2.50
2019-01-24T02:11:36.900Z,-2.50
2019-01-24T02:14:26.711Z,-2.60
2019-01-24T02:17:16.588Z,-2.60
2019-01-24T02:20:08.482Z,-2.60
2019-01-24T02:22:57.901Z,-2.80
2019-01-24T02:25:47.740Z,-2.90
2019-01-24T02:28:38.240Z,-2.90
2019-01-24T02:31:28.042Z,-3.00
2019-01-24T02:34:18.159Z,-3.00
2019-01-24T02:37:08.022Z,-2.90
2019-01-24T02:39:57.801Z,-3.00
2019-01-24T02:42:47.261Z,-3.10
2019-01-24T02:45:37.400Z,-3.00
2019-01-24T02:48:27.119Z,-3.00
2019-01-24T02:51:17.242Z,-3.10
2019-01-24T02:54:07.003Z,-3.00
2019-01-24T02:56:57.095Z,-3.00
2019-01-24T02:59:47.339Z,-3.10
2019-01-24T03:02:37.050Z,-2.90
2019-01-24T03:05:27.090Z,-3.10
2019-01-24T03:08:20.267Z,-2.90
2019-01-24T03:11:09.844Z,-3.00
2019-01-24T03:13:59.982Z,-3.00
2019-01-24T03:16:49.929Z,-3.00
2019-01-24T03:19:39.619Z,-3.10
2019-01-24T03:22:29.365Z,-2.90
2019-01-24T03:26:02.097Z,-3.00
2019-01-24T03:28:52.239Z,-3.10
2019-01-24T03:31:42.088Z,-3.20
2019-01-24T03:34:31.811Z,-3.30
2019-01-24T03:37:21.697Z,-3.10
2019-01-24T03:40:13.110Z,-3.00
2019-01-24T03:43:03.120Z,-3.00
2019-01-24T03:45:53.896Z,-3.30
2019-01-24T03:48:43.522Z,-3.20
2019-01-24T03:51:34.063Z,-3.20
2019-01-24T03:54:24.223Z,-3.30
2019-01-24T03:57:14.028Z,-3.30
2019-01-24T04:00:04.331Z,-3.20
2019-01-24T04:02:54.230Z,-3.20
2019-01-24T04:05:43.912Z,-3.10
2019-01-24T04:08:33.688Z,-3.10
2019-01-24T04:11:23.648Z,-3.20
2019-01-24T04:14:13.252Z,-3.00
2019-01-24T04:17:03.425Z,-3.10
2019-01-24T04:19:53.398Z,-3.20
2019-01-24T04:22:43.299Z,-3.20
2019-01-24T04:25:33.202Z,-3.00
2019-01-24T04:28:23.081Z,-2.90
2019-01-24T04:31:12.718Z,-2.90
2019-01-24T04:34:02.934Z,-2.90
2019-01-24T04:36:52.592Z,-3.00
2019-01-24T04:39:42.460Z,-3.00
2019-01-24T04:42:32.471Z,-3.10
2019-01-24T04:45:22.429Z,-3.10
2019-01-24T04:48:12.442Z,-3.00
2019-01-24T04:51:02.318Z,-3.10
2019-01-24T04:53:53.113Z,-3.10
2019-01-24T04:56:43.011Z,-3.10
2019-01-24T04:59:32.739Z,-2.80
2019-01-24T05:02:22.247Z,-2.90
2019-01-24T05:05:11.919Z,-2.80
2019-01-24T05:08:02.008Z,-2.80
2019-01-24T05:10:52.091Z,-2.80
2019-01-24T05:13:41.823Z,-2.80
2019-01-24T05:16:31.628Z,-3.00
2019-01-24T05:19:21.862Z,-3.00
2019-01-24T05:22:11.909Z,-3.00
2019-01-24T05:25:01.618Z,-2.90
2019-01-24T05:27:51.284Z,-2.90
2019-01-24T05:30:41.070Z,-2.80
2019-01-24T05:33:30.929Z,-2.90
2019-01-24T05:36:20.908Z,-2.90
2019-01-24T05:39:11.030Z,-2.70
2019-01-24T05:42:01.120Z,-2.80
2019-01-24T05:44:51.100Z,-2.70
2019-01-24T05:47:40.857Z,-2.80
2019-01-24T05:50:30.572Z,-2.80
2019-01-24T05:53:20.442Z,-3.00
2019-01-24T05:56:10.222Z,-3.00
2019-01-24T05:58:59.898Z,-2.90
2019-01-24T06:01:51.182Z,-2.90
2019-01-24T06:04:42.131Z,-2.90
2019-01-24T06:07:31.961Z,-2.80
2019-01-24T06:10:21.974Z,-2.70
2019-01-24T06:13:11.628Z,-2.80
2019-01-24T06:16:01.221Z,-2.80
2019-01-24T06:18:50.979Z,-2.70
2019-01-24T06:21:41.453Z,-2.80
2019-01-24T06:24:31.038Z,-2.80
2019-01-24T06:27:21.323Z,-2.70
2019-01-24T06:30:17.121Z,-2.70
2019-01-24T06:33:07.044Z,-2.70
2019-01-24T06:35:57.351Z,-2.60
2019-01-24T06:38:47.318Z,-2.60
2019-01-24T06:41:37.218Z,-2.70
2019-01-24T06:44:27.218Z,-2.70
2019-01-24T06:47:17.260Z,-2.80
2019-01-24T06:50:08.263Z,-2.80
2019-01-24T06:52:57.956Z,-2.80
2019-01-24T06:55:48.968Z,-2.90
2019-01-24T06:58:38.860Z,-3.00
2019-01-24T07:01:28.648Z,-2.90
2019-01-24T07:04:18.718Z,-2.70
2019-01-24T07:07:08.459Z,-2.60
2019-01-24T07:09:58.322Z,-2.60
2019-01-24T07:12:51.445Z,-2.70
2019-01-24T07:15:42.052Z,-2.60
2019-01-24T07:18:32.074Z,-2.50
2019-01-24T07:21:22.239Z,-2.60
2019-01-24T07:24:12.451Z,-2.60
2019-01-24T07:27:02.534Z,-2.50
2019-01-24T07:29:52.158Z,-2.50
2019-01-24T07:32:42.379Z,-2.30
2019-01-24T07:35:32.027Z,-2.50
2019-01-24T07:38:21.699Z,-2.50
2019-01-24T07:41:11.610Z,-2.50
2019-01-24T07:44:01.653Z,-2.60
2019-01-24T07:46:51.772Z,-2.60
2019-01-24T07:49:41.731Z,-2.40
2019-01-24T07:52:31.942Z,-2.40
2019-01-24T07:55:22.629Z,-2.40
2019-01-24T07:58:12.598Z,-2.30
2019-01-24T08:01:02.521Z,-2.20
2019-01-24T08:03:52.301Z,-2.20
2019-01-24T08:06:42.324Z,-2.20
2019-01-24T08:09:32.281Z,-2.30
2019-01-24T08:12:22.418Z,-2.30
2019-01-24T08:15:13.479Z,-2.30
2019-01-24T08:18:03.563Z,-2.30
2019-01-24T08:20:53.308Z,-2.10
2019-01-24T08:23:43.511Z,-2.10
2019-01-24T08:26:33.436Z,-2.00
2019-01-24T08:29:23.519Z,-1.90
2019-01-24T08:32:13.581Z,-1.90
2019-01-24T08:35:03.129Z,-1.90
2019-01-24T08:37:52.899Z,-1.90
2019-01-24T08:40:42.760Z,-1.90
2019-01-24T08:43:32.780Z,-1.90
2019-01-24T08:46:22.851Z,-2.00
2019-01-24T08:49:12.461Z,-1.90
2019-01-24T08:52:02.130Z,-1.80
2019-01-24T08:54:52.223Z,-1.80
2019-01-24T08:57:42.191Z,-1.90
2019-01-24T09:00:32.146Z,-1.90
2019-01-24T09:03:22.048Z,-1.80
2019-01-24T09:06:12.051Z,-1.80
2019-01-24T09:09:01.911Z,-1.80
2019-01-24T09:11:53.352Z,-1.80
2019-01-24T09:14:43.302Z,-1.80
2019-01-24T09:17:33.086Z,-1.70
2019-01-24T09:20:26.310Z,-1.70
2019-01-24T09:23:16.438Z,-1.80
2019-01-24T09:26:06.791Z,-1.80
2019-01-24T09:28:56.518Z,-1.70
2019-01-24T09:31:46.278Z,-1.70
2019-01-24T09:34:36.072Z,-1.60
2019-01-24T09:37:26.072Z,-1.70
2019-01-24T09:40:16.867Z,-1.70
2019-01-24T09:43:06.462Z,-1.70
2019-01-24T09:45:56.198Z,-1.60
2019-01-24T09:48:45.901Z,-1.50
2019-01-24T09:51:36.081Z,-1.70
2019-01-24T09:54:26.077Z,-1.60
2019-01-24T09:57:16.154Z,-1.60
2019-01-24T10:00:10.971Z,-1.60
2019-01-24T10:03:00.617Z,-1.60
2019-01-24T10:05:50.945Z,-1.60
2019-01-24T10:08:40.812Z,-1.60
2019-01-24T10:11:30.481Z,-1.70
2019-01-24T10:14:20.134Z,-1.60
2019-01-24T10:17:10.218Z,-1.50
2019-01-24T10:20:00.408Z,-1.60
2019-01-24T10:22:50.588Z,-1.70
2019-01-24T10:25:40.798Z,-1.70
2019-01-24T10:28:30.262Z,-1.60
2019-01-24T10:31:20.720Z,-1.50
2019-01-24T10:34:10.768Z,-1.60
2019-01-24T10:37:00.608Z,-1.60
2019-01-24T10:39:50.503Z,-1.60
2019-01-24T10:42:40.381Z,-1.70
2019-01-24T10:45:30.275Z,-1.70
2019-01-24T10:48:20.184Z,-1.80
2019-01-24T10:51:09.838Z,-1.70
2019-01-24T10:53:59.691Z,-1.80
2019-01-24T10:56:49.427Z,-1.70
2019-01-24T10:59:39.078Z,-1.60
2019-01-24T11:02:29.239Z,-1.60
2019-01-24T11:05:19.138Z,-1.70
2019-01-24T11:08:09.422Z,-1.60
2019-01-24T11:10:59.231Z,-1.60
2019-01-24T11:13:48.977Z,-1.60
2019-01-24T11:16:38.985Z,-1.70
2019-01-24T11:19:28.689Z,-1.70
2019-01-24T11:22:18.418Z,-1.60
2019-01-24T11:25:10.045Z,-1.60
2019-01-24T11:27:59.718Z,-1.60
2019-01-24T11:30:49.341Z,-1.50
2019-01-24T11:33:39.932Z,-1.60
2019-01-24T11:36:29.878Z,-1.70
2019-01-24T11:39:19.871Z,-1.80
2019-01-24T11:42:10.071Z,-1.80
2019-01-24T11:45:00.438Z,-1.80
2019-01-24T11:47:50.481Z,-1.80
2019-01-24T11:50:40.322Z,-1.70
2019-01-24T11:53:29.932Z,-1.70
2019-01-24T11:56:20.071Z,-1.70
2019-01-24T11:59:09.954Z,-1.60
2019-01-24T12:02:00.261Z,-1.50
2019-01-24T12:04:50.142Z,-1.50
2019-01-24T12:07:41.770Z,-1.80
2019-01-24T12:10:33.776Z,-1.60
2019-01-24T12:13:31.561Z,-1.50
2019-01-24T12:16:27.034Z,-1.60
2019-01-24T12:19:20.901Z,-1.70
2019-01-24T12:22:13.013Z,-1.70
2019-01-24T12:25:05.611Z,-1.70
2019-01-24T12:27:56.492Z,-1.70
2019-01-24T12:30:47.192Z,-1.70
2019-01-24T12:33:38.140Z,-1.70
2019-01-24T12:36:29.481Z,-1.60
2019-01-24T12:39:19.491Z,-1.60
2019-01-24T12:42:10.512Z,-1.60
2019-01-24T12:45:01.371Z,-1.60
2019-01-24T12:47:52.814Z,-1.60
2019-01-24T12:50:43.676Z,-1.60
2019-01-24T12:53:34.401Z,-1.50
2019-01-24T12:56:25.193Z,-1.50
2019-01-24T12:59:17.150Z,-1.40
2019-01-24T13:02:09.610Z,-1.50
2019-01-24T13:05:01.531Z,-1.40
2019-01-24T13:07:53.499Z,-1.50
2019-01-24T13:10:46.242Z,-1.40
2019-01-24T13:13:37.241Z,-1.40
2019-01-24T13:16:27.964Z,-1.40
2019-01-24T13:19:18.764Z,-1.40
2019-01-24T13:22:10.142Z,-1.40
2019-01-24T13:25:01.139Z,-1.30
2019-01-24T13:27:52.183Z,-1.50
2019-01-24T13:30:42.524Z,-1.50
2019-01-24T13:33:33.352Z,-1.40
2019-01-24T13:36:23.769Z,-1.40
2019-01-24T13:39:14.509Z,-1.30
2019-01-24T13:42:05.270Z,-1.30
2019-01-24T13:44:58.621Z,-1.40
2019-01-24T13:47:50.783Z,-1.30
2019-01-24T13:50:45.790Z,-1.20
2019-01-24T13:53:35.938Z,-1.30
2019-01-24T13:56:29.939Z,-1.30
2019-01-24T13:59:19.848Z,-1.40
2019-01-24T14:02:09.619Z,-1.30
2019-01-24T14:04:59.408Z,-1.30
2019-01-24T14:07:49.139Z,-1.30
2019-01-24T14:10:38.979Z,-1.40
2019-01-24T14:13:33.002Z,-1.40
2019-01-24T14:16:28.059Z,-1.30
2019-01-24T14:19:18.568Z,-1.10
2019-01-24T14:22:09.123Z,-1.20
2019-01-24T14:24:59.700Z,-1.20
2019-01-24T14:27:50.940Z,-1.10
2019-01-24T14:30:42.231Z,-1.20
2019-01-24T14:33:32.951Z,-1.20
2019-01-24T14:36:29.437Z,-1.20
2019-01-24T14:39:22.945Z,-1.20
2019-01-24T14:42:13.689Z,-1.10
2019-01-24T14:45:07.044Z,-1.00
2019-01-24T14:47:57.903Z,-1.10
2019-01-24T14:50:48.618Z,-1.10
2019-01-24T14:53:39.325Z,-1.10
2019-01-24T14:56:29.963Z,-1.20
2019-01-24T14:59:20.942Z,-1.20
2019-01-24T15:02:11.643Z,-1.20
2019-01-24T15:05:03.164Z,-1.10
2019-01-24T15:07:54.478Z,-1.10
2019-01-24T15:10:45.273Z,-1.00
2019-01-24T15:13:35.831Z,-1.00
2019-01-24T15:16:26.023Z,-1.20
2019-01-24T15:19:16.056Z,-1.20
2019-01-24T15:22:06.651Z,-1.20
2019-01-24T15:24:56.983Z,-1.10
2019-01-24T15:27:49.409Z,-1.10
2019-01-24T15:30:39.231Z,-1.20
2019-01-24T15:33:30.200Z,-1.10
2019-01-24T15:36:21.920Z,-1.00
2019-01-24T15:39:12.532Z,-1.20
2019-01-24T15:42:04.546Z,-1.10
2019-01-24T15:44:56.298Z,-1.20
2019-01-24T15:47:47.129Z,-1.20
2019-01-24T15:50:42.403Z,-1.20
2019-01-24T15:53:32.938Z,-1.20
2019-01-24T15:56:23.064Z,-1.20
2019-01-24T15:59:13.554Z,-1.20
2019-01-24T16:02:04.091Z,-1.10
2019-01-24T16:04:54.041Z,-1.00
2019-01-24T16:07:44.013Z,-1.10
2019-01-24T16:10:33.781Z,-1.10
2019-01-24T16:13:23.778Z,-1.10
2019-01-24T16:16:13.901Z,-1.00
2019-01-24T16:19:06.222Z,-1.00
2019-01-24T16:21:56.351Z,-1.00
2019-01-24T16:24:46.332Z,-1.00
2019-01-24T16:27:36.101Z,-1.00
2019-01-24T16:30:27.920Z,-1.10
2019-01-24T16:33:18.993Z,-1.10
2019-01-24T16:36:08.899Z,-1.10
2019-01-24T16:38:58.553Z,-1.10
2019-01-24T16:41:48.446Z,-1.10
2019-01-24T16:44:38.420Z,-1.00
2019-01-24T16:47:28.530Z,-1.00
2019-01-24T16:50:19.085Z,-1.10
2019-01-24T16:53:08.680Z,-1.00
2019-01-24T16:55:58.630Z,-1.00
2019-01-24T16:58:48.469Z,-1.00
2019-01-24T17:01:38.121Z,-1.10
2019-01-24T17:04:27.920Z,-1.10
2019-01-24T17:07:18.221Z,-1.00
2019-01-24T17:10:10.040Z,-1.00
2019-01-24T17:13:00.200Z,-0.90
2019-01-24T17:15:50.485Z,-1.00
2019-01-24T17:18:40.406Z,-1.10
2019-01-24T17:21:30.100Z,-1.00
2019-01-24T17:24:20.037Z,-1.00
2019-01-24T17:27:09.737Z,-1.00
2019-01-24T17:29:59.630Z,-1.00
2019-01-24T17:32:49.600Z,-1.00
2019-01-24T17:35:40.735Z,-0.90
2019-01-24T17:38:31.898Z,-1.00
2019-01-24T17:41:21.697Z,-1.00
2019-01-24T17:44:11.348Z,-1.00
2019-01-24T17:47:01.340Z,-0.90
2019-01-24T17:49:51.591Z,-0.90
2019-01-24T17:52:41.216Z,-0.90
2019-01-24T17:55:36.304Z,-1.00
2019-01-24T17:58:26.557Z,-1.00
2019-01-24T18:01:18.279Z,-0.90
2019-01-24T18:04:11.085Z,-1.00
2019-01-24T18:07:02.101Z,-0.90
2019-01-24T18:09:52.179Z,-0.90
2019-01-24T18:12:44.184Z,-0.90
2019-01-24T18:15:35.392Z,-1.00
2019-01-24T18:22:03.587Z,-0.90
2019-01-24T18:24:54.311Z,-0.90
2019-01-24T18:27:45.004Z,-0.90
2019-01-24T18:30:35.382Z,-1.00
2019-01-24T18:33:25.477Z,-1.00
2019-01-24T18:36:15.578Z,-1.10
2019-01-24T18:39:09.921Z,-1.10
2019-01-24T18:42:00.358Z,-0.90
2019-01-24T18:44:50.650Z,-0.90
2019-01-24T18:47:46.784Z,-0.80
2019-01-24T18:50:36.777Z,-0.90
2019-01-24T18:53:27.081Z,-0.90
2019-01-24T18:56:17.263Z,-0.80
2019-01-24T18:59:07.459Z,-0.90
2019-01-24T19:01:57.228Z,-1.00
2019-01-24T19:04:47.518Z,-0.90
2019-01-24T19:07:38.273Z,-0.80
2019-01-24T19:10:28.667Z,-0.80
2019-01-24T19:13:18.924Z,-0.80
2019-01-24T19:16:11.000Z,-0.90
2019-01-24T19:19:01.214Z,-0.80
2019-01-24T19:21:51.524Z,-0.80
2019-01-24T19:24:41.819Z,-0.90
2019-01-24T19:27:32.063Z,-0.90
2019-01-24T19:30:24.915Z,-0.90
2019-01-24T19:33:15.149Z,-0.90
2019-01-24T19:36:04.918Z,-0.90
2019-01-24T19:38:55.098Z,-0.90
2019-01-24T19:41:44.779Z,-1.00
2019-01-24T19:44:34.979Z,-0.90
2019-01-24T19:47:24.928Z,-0.90
2019-01-24T19:50:16.920Z,-0.90
2019-01-24T19:53:07.303Z,-0.90
2019-01-24T19:55:57.546Z,-0.90
2019-01-24T19:58:47.280Z,-0.90
2019-01-24T20:01:37.125Z,-0.90
2019-01-24T20:04:26.995Z,-1.00
2019-01-24T20:07:16.878Z,-1.00
2019-01-24T20:10:09.286Z,-1.00
2019-01-24T20:12:59.521Z,-0.90
2019-01-24T20:15:49.264Z,-0.80
2019-01-24T20:18:39.116Z,-0.90
2019-01-24T20:21:28.915Z,-0.80
2019-01-24T20:24:18.528Z,-0.90
2019-01-24T20:27:08.465Z,-1.00
2019-01-24T20:29:58.736Z,-1.00
2019-01-24T20:32:49.014Z,-0.90
2019-01-24T20:35:41.173Z,-1.00
2019-01-24T20:38:31.168Z,-1.00
2019-01-24T20:41:21.289Z,-0.90
2019-01-24T20:44:11.275Z,-1.00
2019-01-24T20:47:01.351Z,-0.90
2019-01-24T20:49:51.628Z,-1.00
2019-01-24T20:52:41.492Z,-0.90
2019-01-24T20:55:31.582Z,-0.80
2019-01-24T20:58:21.555Z,-0.80
2019-01-24T21:01:11.709Z,-0.80
2019-01-24T21:04:01.543Z,-0.80
2019-01-24T21:06:51.346Z,-0.90
2019-01-24T21:09:40.971Z,-0.90
2019-01-24T21:12:31.128Z,-0.90
2019-01-24T21:15:25.433Z,-0.90
2019-01-24T21:18:15.313Z,-0.90
2019-01-24T21:21:05.305Z,-0.90
2019-01-24T21:23:55.584Z,-0.90
2019-01-24T21:26:45.627Z,-0.90
2019-01-24T21:29:35.426Z,-0.90
2019-01-24T21:32:26.344Z,-0.90
2019-01-24T21:35:16.906Z,-0.90
2019-01-24T21:38:08.963Z,-1.00
2019-01-24T21:41:25.215Z,-1.10
2019-01-24T21:44:15.216Z,-1.10
2019-01-24T21:47:05.008Z,-1.00
2019-01-24T21:49:55.048Z,-1.10
2019-01-24T21:52:45.099Z,-1.20
2019-01-24T21:55:34.827Z,-1.10
2019-01-24T21:58:24.704Z,-1.10
2019-01-24T22:01:14.662Z,-1.10
2019-01-24T22:04:04.710Z,-1.00
2019-01-24T22:06:56.201Z,-1.00
2019-01-24T22:09:46.183Z,-1.00
2019-01-24T22:12:36.266Z,-1.10
2019-01-24T22:15:28.206Z,-1.10
2019-01-24T22:18:18.326Z,-1.10
2019-01-24T22:21:08.497Z,-1.10
2019-01-24T22:23:58.289Z,-1.10
2019-01-24T22:26:48.127Z,-1.00
2019-01-24T22:29:39.046Z,-0.90
2019-01-24T22:32:29.355Z,-0.80
2019-01-24T22:35:19.313Z,-0.90
2019-01-24T22:38:09.395Z,-0.90
2019-01-24T22:40:59.706Z,-1.00
2019-01-24T22:43:50.265Z,-0.90
2019-01-24T22:46:43.013Z,-0.90
2019-01-24T22:49:32.833Z,-0.90
2019-01-24T22:52:24.267Z,-0.90
2019-01-24T22:55:15.454Z,-1.00
2019-01-24T22:58:05.556Z,-1.00
2019-01-24T23:01:23.036Z,-0.90
2019-01-24T23:04:16.886Z,-1.00
2019-01-24T23:07:06.834Z,-1.10
2019-01-24T23:09:56.752Z,-1.10
2019-01-24T23:12:47.126Z,-1.20
2019-01-24T23:15:37.164Z,-1.10
2019-01-24T23:18:27.083Z,-1.00
2019-01-24T23:21:17.143Z,-1.20
2019-01-24T23:24:07.564Z,-1.20
2019-01-24T23:26:59.143Z,-1.10
2019-01-24T23:29:49.254Z,-1.10
2019-01-24T23:32:39.846Z,-1.10
2019-01-24T23:35:32.308Z,-1.20
2019-01-24T23:38:26.366Z,-1.20
2019-01-24T23:41:16.242Z,-1.10
2019-01-24T23:44:06.584Z,-1.00
2019-01-24T23:46:56.703Z,-1.00
2019-01-24T23:49:46.746Z,-1.10
2019-01-24T23:52:36.595Z,-1.10
2019-01-24T23:55:26.849Z,-1.00
2019-01-24T23:58:16.776Z,-1.00
